sensor_id;sensor_type;location;lat;lon;timestamp;temperature;humidity
19437;DHT22;9854;50.968;4.168;2023-04-25T00:01:20;10.90;99.90
19437;DHT22;9854;50.968;4.168;2023-04-25T00:03:47;11.00;99.90
19437;DHT22;9854;50.968;4.168;2023-04-25T00:06:13;11.10;99.90
19437;DHT22;9854;50.968;4.168;2023-04-25T00:08:39;11.00;99.90
19437;DHT22;9854;50.968;4.168;2023-04-25T00:11:05;11.00;99.90
19437;DHT22;9854;50.968;4.168;2023-04-25T00:13:30;10.90;99.90
19437;DHT22;9854;50.968;4.168;2023-04-25T00:15:56;10.90;99.90
19437;DHT22;9854;50.968;4.168;2023-04-25T00:18:23;10.90;99.90
19437;DHT22;9854;50.968;4.168;2023-04-25T00:20:49;10.90;99.90
19437;DHT22;9854;50.968;4.168;2023-04-25T00:23:16;10.90;99.90
19437;DHT22;9854;50.968;4.168;2023-04-25T00:25:45;10.90;99.90
19437;DHT22;9854;50.968;4.168;2023-04-25T00:28:12;10.90;99.90
19437;DHT22;9854;50.968;4.168;2023-04-25T00:30:39;10.90;99.90
19437;DHT22;9854;50.968;4.168;2023-04-25T00:33:04;10.80;99.90
19437;DHT22;9854;50.968;4.168;2023-04-25T00:35:30;10.80;99.90
19437;DHT22;9854;50.968;4.168;2023-04-25T00:37:56;10.80;99.90
19437;DHT22;9854;50.968;4.168;2023-04-25T00:40:22;10.70;99.90
19437;DHT22;9854;50.968;4.168;2023-04-25T00:42:47;10.70;99.90
19437;DHT22;9854;50.968;4.168;2023-04-25T00:45:14;10.70;99.90
19437;DHT22;9854;50.968;4.168;2023-04-25T00:47:41;10.70;99.90
19437;DHT22;9854;50.968;4.168;2023-04-25T00:50:08;10.60;99.90
19437;DHT22;9854;50.968;4.168;2023-04-25T00:52:34;10.60;99.90
19437;DHT22;9854;50.968;4.168;2023-04-25T00:55:00;10.70;99.90
19437;DHT22;9854;50.968;4.168;2023-04-25T00:57:26;10.60;99.90
19437;DHT22;9854;50.968;4.168;2023-04-25T00:59:53;10.60;99.90
19437;DHT22;9854;50.968;4.168;2023-04-25T01:02:20;10.60;99.90
19437;DHT22;9854;50.968;4.168;2023-04-25T01:04:46;10.60;99.90
19437;DHT22;9854;50.968;4.168;2023-04-25T01:07:12;10.70;99.90
19437;DHT22;9854;50.968;4.168;2023-04-25T01:09:39;10.70;99.90
19437;DHT22;9854;50.968;4.168;2023-04-25T01:12:05;10.60;99.90
19437;DHT22;9854;50.968;4.168;2023-04-25T01:14:31;10.70;99.90
19437;DHT22;9854;50.968;4.168;2023-04-25T01:16:59;10.60;99.90
19437;DHT22;9854;50.968;4.168;2023-04-25T01:19:25;10.70;99.90
19437;DHT22;9854;50.968;4.168;2023-04-25T01:21:51;10.60;99.90
19437;DHT22;9854;50.968;4.168;2023-04-25T01:24:17;10.60;99.90
19437;DHT22;9854;50.968;4.168;2023-04-25T01:26:43;10.60;99.90
19437;DHT22;9854;50.968;4.168;2023-04-25T01:29:18;10.70;99.90
19437;DHT22;9854;50.968;4.168;2023-04-25T01:31:45;10.60;99.90
19437;DHT22;9854;50.968;4.168;2023-04-25T01:34:11;10.50;99.90
19437;DHT22;9854;50.968;4.168;2023-04-25T01:36:37;10.60;99.90
19437;DHT22;9854;50.968;4.168;2023-04-25T01:39:03;10.60;99.90
19437;DHT22;9854;50.968;4.168;2023-04-25T01:41:29;10.40;99.90
19437;DHT22;9854;50.968;4.168;2023-04-25T01:43:55;10.40;99.90
19437;DHT22;9854;50.968;4.168;2023-04-25T01:46:21;10.40;99.90
19437;DHT22;9854;50.968;4.168;2023-04-25T01:48:46;10.50;99.90
19437;DHT22;9854;50.968;4.168;2023-04-25T01:51:12;10.50;99.90
19437;DHT22;9854;50.968;4.168;2023-04-25T01:53:38;10.40;99.90
19437;DHT22;9854;50.968;4.168;2023-04-25T01:56:05;10.30;99.90
19437;DHT22;9854;50.968;4.168;2023-04-25T01:58:31;10.20;99.90
19437;DHT22;9854;50.968;4.168;2023-04-25T02:00:56;10.20;99.90
19437;DHT22;9854;50.968;4.168;2023-04-25T02:03:22;10.20;99.90
19437;DHT22;9854;50.968;4.168;2023-04-25T02:05:47;10.30;99.90
19437;DHT22;9854;50.968;4.168;2023-04-25T02:08:13;10.30;99.90
19437;DHT22;9854;50.968;4.168;2023-04-25T02:10:39;10.30;99.90
19437;DHT22;9854;50.968;4.168;2023-04-25T02:13:05;10.30;99.90
19437;DHT22;9854;50.968;4.168;2023-04-25T02:15:31;10.30;99.90
19437;DHT22;9854;50.968;4.168;2023-04-25T02:17:56;10.20;99.90
19437;DHT22;9854;50.968;4.168;2023-04-25T02:20:24;10.20;99.90
19437;DHT22;9854;50.968;4.168;2023-04-25T02:22:50;10.10;99.90
19437;DHT22;9854;50.968;4.168;2023-04-25T02:25:16;10.10;99.90
19437;DHT22;9854;50.968;4.168;2023-04-25T02:27:42;9.90;99.90
19437;DHT22;9854;50.968;4.168;2023-04-25T02:30:09;10.00;99.90
19437;DHT22;9854;50.968;4.168;2023-04-25T02:32:34;10.10;99.90
19437;DHT22;9854;50.968;4.168;2023-04-25T02:35:01;10.00;99.90
19437;DHT22;9854;50.968;4.168;2023-04-25T02:37:30;9.90;99.90
19437;DHT22;9854;50.968;4.168;2023-04-25T02:39:55;9.90;99.90
19437;DHT22;9854;50.968;4.168;2023-04-25T02:42:21;9.80;99.90
19437;DHT22;9854;50.968;4.168;2023-04-25T02:44:46;9.80;99.90
19437;DHT22;9854;50.968;4.168;2023-04-25T02:47:12;9.60;99.90
19437;DHT22;9854;50.968;4.168;2023-04-25T02:49:38;9.70;99.90
19437;DHT22;9854;50.968;4.168;2023-04-25T02:52:03;9.50;99.90
19437;DHT22;9854;50.968;4.168;2023-04-25T02:54:30;9.50;99.90
19437;DHT22;9854;50.968;4.168;2023-04-25T02:56:55;9.50;99.90
19437;DHT22;9854;50.968;4.168;2023-04-25T02:59:21;9.40;99.90
19437;DHT22;9854;50.968;4.168;2023-04-25T03:01:47;9.30;99.90
19437;DHT22;9854;50.968;4.168;2023-04-25T03:04:13;9.20;99.90
19437;DHT22;9854;50.968;4.168;2023-04-25T03:06:39;9.20;99.90
19437;DHT22;9854;50.968;4.168;2023-04-25T03:09:05;9.20;99.90
19437;DHT22;9854;50.968;4.168;2023-04-25T03:11:30;9.10;99.90
19437;DHT22;9854;50.968;4.168;2023-04-25T03:13:56;9.00;99.90
19437;DHT22;9854;50.968;4.168;2023-04-25T03:16:22;9.00;99.90
19437;DHT22;9854;50.968;4.168;2023-04-25T03:18:48;9.00;99.90
19437;DHT22;9854;50.968;4.168;2023-04-25T03:21:15;9.10;99.90
19437;DHT22;9854;50.968;4.168;2023-04-25T03:23:40;9.10;99.90
19437;DHT22;9854;50.968;4.168;2023-04-25T03:26:06;9.00;99.90
19437;DHT22;9854;50.968;4.168;2023-04-25T03:28:31;9.00;99.90
19437;DHT22;9854;50.968;4.168;2023-04-25T03:30:57;9.00;99.90
19437;DHT22;9854;50.968;4.168;2023-04-25T03:33:23;9.00;99.90
19437;DHT22;9854;50.968;4.168;2023-04-25T03:35:48;9.00;99.90
19437;DHT22;9854;50.968;4.168;2023-04-25T03:38:15;9.00;99.90
19437;DHT22;9854;50.968;4.168;2023-04-25T03:40:41;9.00;99.90
19437;DHT22;9854;50.968;4.168;2023-04-25T03:43:06;9.30;99.90
19437;DHT22;9854;50.968;4.168;2023-04-25T03:45:32;9.30;99.90
19437;DHT22;9854;50.968;4.168;2023-04-25T03:47:58;9.30;99.90
19437;DHT22;9854;50.968;4.168;2023-04-25T03:50:23;9.30;99.90
19437;DHT22;9854;50.968;4.168;2023-04-25T03:52:49;9.30;99.90
19437;DHT22;9854;50.968;4.168;2023-04-25T03:55:15;9.40;99.90
19437;DHT22;9854;50.968;4.168;2023-04-25T03:57:41;9.40;99.90
19437;DHT22;9854;50.968;4.168;2023-04-25T04:00:07;9.40;99.90
19437;DHT22;9854;50.968;4.168;2023-04-25T04:02:33;9.40;99.90
19437;DHT22;9854;50.968;4.168;2023-04-25T04:05:00;9.50;99.90
19437;DHT22;9854;50.968;4.168;2023-04-25T04:07:26;9.50;99.90
19437;DHT22;9854;50.968;4.168;2023-04-25T04:09:52;9.50;99.90
19437;DHT22;9854;50.968;4.168;2023-04-25T04:12:17;9.30;99.90
19437;DHT22;9854;50.968;4.168;2023-04-25T04:14:43;9.30;99.90
19437;DHT22;9854;50.968;4.168;2023-04-25T04:17:08;8.90;99.90
19437;DHT22;9854;50.968;4.168;2023-04-25T04:19:34;8.80;99.90
19437;DHT22;9854;50.968;4.168;2023-04-25T04:22:00;8.80;99.90
19437;DHT22;9854;50.968;4.168;2023-04-25T04:24:26;8.70;99.90
19437;DHT22;9854;50.968;4.168;2023-04-25T04:26:51;8.60;99.90
19437;DHT22;9854;50.968;4.168;2023-04-25T04:29:17;8.70;99.90
19437;DHT22;9854;50.968;4.168;2023-04-25T04:31:50;8.70;99.90
19437;DHT22;9854;50.968;4.168;2023-04-25T04:34:16;8.80;99.90
19437;DHT22;9854;50.968;4.168;2023-04-25T04:36:43;8.80;99.90
19437;DHT22;9854;50.968;4.168;2023-04-25T04:39:12;8.90;99.90
19437;DHT22;9854;50.968;4.168;2023-04-25T04:41:38;9.00;99.90
19437;DHT22;9854;50.968;4.168;2023-04-25T04:44:04;9.00;99.90
19437;DHT22;9854;50.968;4.168;2023-04-25T04:46:29;9.00;99.90
19437;DHT22;9854;50.968;4.168;2023-04-25T04:49:06;9.00;99.90
19437;DHT22;9854;50.968;4.168;2023-04-25T04:51:31;9.10;99.90
19437;DHT22;9854;50.968;4.168;2023-04-25T04:53:58;9.20;99.90
19437;DHT22;9854;50.968;4.168;2023-04-25T04:56:30;9.20;99.90
19437;DHT22;9854;50.968;4.168;2023-04-25T04:58:59;9.20;99.90
19437;DHT22;9854;50.968;4.168;2023-04-25T05:01:26;9.20;99.90
19437;DHT22;9854;50.968;4.168;2023-04-25T05:03:52;9.20;99.90
19437;DHT22;9854;50.968;4.168;2023-04-25T05:06:18;9.30;99.90
19437;DHT22;9854;50.968;4.168;2023-04-25T05:08:44;9.30;99.90
19437;DHT22;9854;50.968;4.168;2023-04-25T05:11:10;9.30;99.90
19437;DHT22;9854;50.968;4.168;2023-04-25T05:13:36;9.30;99.90
19437;DHT22;9854;50.968;4.168;2023-04-25T05:16:02;9.30;99.90
19437;DHT22;9854;50.968;4.168;2023-04-25T05:18:28;9.30;99.90
19437;DHT22;9854;50.968;4.168;2023-04-25T05:20:53;9.30;99.90
19437;DHT22;9854;50.968;4.168;2023-04-25T05:23:19;9.20;99.90
19437;DHT22;9854;50.968;4.168;2023-04-25T05:25:45;9.30;99.90
19437;DHT22;9854;50.968;4.168;2023-04-25T05:28:12;9.10;99.90
19437;DHT22;9854;50.968;4.168;2023-04-25T05:30:38;9.10;99.90
19437;DHT22;9854;50.968;4.168;2023-04-25T05:33:03;9.20;99.90
19437;DHT22;9854;50.968;4.168;2023-04-25T05:35:29;9.30;99.90
19437;DHT22;9854;50.968;4.168;2023-04-25T05:37:55;9.30;99.90
19437;DHT22;9854;50.968;4.168;2023-04-25T05:40:21;9.40;99.90
19437;DHT22;9854;50.968;4.168;2023-04-25T05:42:46;9.40;99.90
19437;DHT22;9854;50.968;4.168;2023-04-25T05:45:12;9.30;99.90
19437;DHT22;9854;50.968;4.168;2023-04-25T05:47:38;9.20;99.90
19437;DHT22;9854;50.968;4.168;2023-04-25T05:50:04;9.20;99.90
19437;DHT22;9854;50.968;4.168;2023-04-25T05:52:30;9.30;99.90
19437;DHT22;9854;50.968;4.168;2023-04-25T05:54:55;9.10;99.90
19437;DHT22;9854;50.968;4.168;2023-04-25T05:57:23;9.10;99.90
19437;DHT22;9854;50.968;4.168;2023-04-25T05:59:49;9.00;99.90
19437;DHT22;9854;50.968;4.168;2023-04-25T06:02:14;9.00;99.90
19437;DHT22;9854;50.968;4.168;2023-04-25T06:04:40;8.90;99.90
19437;DHT22;9854;50.968;4.168;2023-04-25T06:07:06;9.00;99.90
19437;DHT22;9854;50.968;4.168;2023-04-25T06:09:31;9.20;99.90
19437;DHT22;9854;50.968;4.168;2023-04-25T06:11:57;9.10;99.90
19437;DHT22;9854;50.968;4.168;2023-04-25T06:14:22;9.10;99.90
19437;DHT22;9854;50.968;4.168;2023-04-25T06:16:48;9.10;99.90
19437;DHT22;9854;50.968;4.168;2023-04-25T06:19:14;9.20;99.90
19437;DHT22;9854;50.968;4.168;2023-04-25T06:21:39;9.40;99.90
19437;DHT22;9854;50.968;4.168;2023-04-25T06:24:05;9.50;99.90
19437;DHT22;9854;50.968;4.168;2023-04-25T06:26:31;9.40;99.90
19437;DHT22;9854;50.968;4.168;2023-04-25T06:28:56;9.50;99.90
19437;DHT22;9854;50.968;4.168;2023-04-25T06:31:22;9.60;99.90
19437;DHT22;9854;50.968;4.168;2023-04-25T06:33:47;9.80;99.90
19437;DHT22;9854;50.968;4.168;2023-04-25T06:36:13;9.80;99.90
19437;DHT22;9854;50.968;4.168;2023-04-25T06:38:39;10.00;99.90
19437;DHT22;9854;50.968;4.168;2023-04-25T06:41:05;10.10;99.90
19437;DHT22;9854;50.968;4.168;2023-04-25T06:43:31;10.00;99.90
19437;DHT22;9854;50.968;4.168;2023-04-25T06:45:59;10.00;99.90
19437;DHT22;9854;50.968;4.168;2023-04-25T06:48:26;9.90;99.90
19437;DHT22;9854;50.968;4.168;2023-04-25T06:50:52;9.90;99.90
19437;DHT22;9854;50.968;4.168;2023-04-25T06:53:17;9.60;99.90
19437;DHT22;9854;50.968;4.168;2023-04-25T06:55:44;9.70;99.90
19437;DHT22;9854;50.968;4.168;2023-04-25T06:58:09;9.70;99.90
19437;DHT22;9854;50.968;4.168;2023-04-25T07:00:35;9.70;99.90
19437;DHT22;9854;50.968;4.168;2023-04-25T07:03:01;9.60;99.90
19437;DHT22;9854;50.968;4.168;2023-04-25T07:05:27;9.70;99.90
19437;DHT22;9854;50.968;4.168;2023-04-25T07:07:53;9.70;99.90
19437;DHT22;9854;50.968;4.168;2023-04-25T07:10:19;9.60;99.90
19437;DHT22;9854;50.968;4.168;2023-04-25T07:12:44;9.70;99.90
19437;DHT22;9854;50.968;4.168;2023-04-25T07:15:10;9.90;99.90
19437;DHT22;9854;50.968;4.168;2023-04-25T07:17:37;10.00;99.90
19437;DHT22;9854;50.968;4.168;2023-04-25T07:20:03;10.10;99.90
19437;DHT22;9854;50.968;4.168;2023-04-25T07:22:29;10.20;99.90
19437;DHT22;9854;50.968;4.168;2023-04-25T07:24:55;10.40;99.90
19437;DHT22;9854;50.968;4.168;2023-04-25T07:27:21;10.30;99.90
19437;DHT22;9854;50.968;4.168;2023-04-25T07:29:46;10.30;99.90
19437;DHT22;9854;50.968;4.168;2023-04-25T07:32:12;10.00;99.90
19437;DHT22;9854;50.968;4.168;2023-04-25T07:34:39;10.00;99.90
19437;DHT22;9854;50.968;4.168;2023-04-25T07:37:05;10.00;99.90
19437;DHT22;9854;50.968;4.168;2023-04-25T07:39:31;10.20;99.90
19437;DHT22;9854;50.968;4.168;2023-04-25T07:41:56;10.20;99.90
19437;DHT22;9854;50.968;4.168;2023-04-25T07:44:24;10.20;99.90
19437;DHT22;9854;50.968;4.168;2023-04-25T07:46:51;10.30;99.90
19437;DHT22;9854;50.968;4.168;2023-04-25T07:49:16;10.10;99.90
19437;DHT22;9854;50.968;4.168;2023-04-25T07:51:42;10.10;99.90
19437;DHT22;9854;50.968;4.168;2023-04-25T07:54:13;10.10;99.90
19437;DHT22;9854;50.968;4.168;2023-04-25T07:56:39;10.30;99.90
19437;DHT22;9854;50.968;4.168;2023-04-25T07:59:04;10.10;99.90
19437;DHT22;9854;50.968;4.168;2023-04-25T08:01:30;10.40;99.90
19437;DHT22;9854;50.968;4.168;2023-04-25T08:03:56;10.40;99.90
19437;DHT22;9854;50.968;4.168;2023-04-25T08:06:22;10.40;99.90
19437;DHT22;9854;50.968;4.168;2023-04-25T08:08:47;10.40;99.90
19437;DHT22;9854;50.968;4.168;2023-04-25T08:11:13;10.50;99.90
19437;DHT22;9854;50.968;4.168;2023-04-25T08:13:38;10.80;99.90
19437;DHT22;9854;50.968;4.168;2023-04-25T08:16:04;10.80;99.90
19437;DHT22;9854;50.968;4.168;2023-04-25T08:18:30;11.00;99.90
19437;DHT22;9854;50.968;4.168;2023-04-25T08:20:56;10.90;99.90
19437;DHT22;9854;50.968;4.168;2023-04-25T08:23:22;11.30;99.90
19437;DHT22;9854;50.968;4.168;2023-04-25T08:25:47;11.80;99.90
19437;DHT22;9854;50.968;4.168;2023-04-25T08:28:14;12.10;99.90
19437;DHT22;9854;50.968;4.168;2023-04-25T08:30:40;12.20;99.90
19437;DHT22;9854;50.968;4.168;2023-04-25T08:33:06;11.80;99.90
19437;DHT22;9854;50.968;4.168;2023-04-25T08:35:32;11.20;99.90
19437;DHT22;9854;50.968;4.168;2023-04-25T08:37:58;10.90;99.90
19437;DHT22;9854;50.968;4.168;2023-04-25T08:40:27;10.90;99.90
19437;DHT22;9854;50.968;4.168;2023-04-25T08:42:57;11.20;99.90
19437;DHT22;9854;50.968;4.168;2023-04-25T08:45:23;10.80;99.90
19437;DHT22;9854;50.968;4.168;2023-04-25T08:47:51;10.60;99.90
19437;DHT22;9854;50.968;4.168;2023-04-25T08:50:18;10.60;99.90
19437;DHT22;9854;50.968;4.168;2023-04-25T08:52:47;10.40;99.90
19437;DHT22;9854;50.968;4.168;2023-04-25T08:55:15;10.20;99.90
19437;DHT22;9854;50.968;4.168;2023-04-25T08:57:42;10.20;99.90
19437;DHT22;9854;50.968;4.168;2023-04-25T09:00:12;10.30;99.90
19437;DHT22;9854;50.968;4.168;2023-04-25T09:02:42;10.40;99.90
19437;DHT22;9854;50.968;4.168;2023-04-25T09:05:09;10.70;99.90
19437;DHT22;9854;50.968;4.168;2023-04-25T09:07:37;11.30;99.90
19437;DHT22;9854;50.968;4.168;2023-04-25T09:10:03;11.60;99.90
19437;DHT22;9854;50.968;4.168;2023-04-25T09:12:29;12.00;99.90
19437;DHT22;9854;50.968;4.168;2023-04-25T09:15:10;12.00;99.90
19437;DHT22;9854;50.968;4.168;2023-04-25T09:17:36;11.80;99.90
19437;DHT22;9854;50.968;4.168;2023-04-25T09:20:13;11.80;99.90
19437;DHT22;9854;50.968;4.168;2023-04-25T09:22:39;11.70;99.90
19437;DHT22;9854;50.968;4.168;2023-04-25T09:25:09;11.60;99.90
19437;DHT22;9854;50.968;4.168;2023-04-25T09:27:35;11.50;99.90
19437;DHT22;9854;50.968;4.168;2023-04-25T09:30:02;11.50;99.90
19437;DHT22;9854;50.968;4.168;2023-04-25T09:32:28;11.30;99.90
19437;DHT22;9854;50.968;4.168;2023-04-25T09:34:55;11.50;99.90
19437;DHT22;9854;50.968;4.168;2023-04-25T09:37:26;11.80;99.90
19437;DHT22;9854;50.968;4.168;2023-04-25T09:39:59;12.20;99.90
19437;DHT22;9854;50.968;4.168;2023-04-25T09:42:28;12.30;99.90
19437;DHT22;9854;50.968;4.168;2023-04-25T09:44:57;12.30;99.90
19437;DHT22;9854;50.968;4.168;2023-04-25T09:47:24;12.60;99.90
19437;DHT22;9854;50.968;4.168;2023-04-25T09:49:51;12.60;99.90
19437;DHT22;9854;50.968;4.168;2023-04-25T09:52:21;12.90;99.90
19437;DHT22;9854;50.968;4.168;2023-04-25T09:54:48;12.80;99.90
19437;DHT22;9854;50.968;4.168;2023-04-25T09:57:24;13.10;99.90
19437;DHT22;9854;50.968;4.168;2023-04-25T09:59:52;13.90;99.90
19437;DHT22;9854;50.968;4.168;2023-04-25T10:02:19;14.20;99.90
19437;DHT22;9854;50.968;4.168;2023-04-25T10:04:49;13.90;99.90
19437;DHT22;9854;50.968;4.168;2023-04-25T10:07:16;13.70;99.90
19437;DHT22;9854;50.968;4.168;2023-04-25T10:09:43;13.10;99.90
19437;DHT22;9854;50.968;4.168;2023-04-25T10:12:12;12.40;99.90
19437;DHT22;9854;50.968;4.168;2023-04-25T10:14:38;12.00;99.90
19437;DHT22;9854;50.968;4.168;2023-04-25T10:17:05;11.90;99.90
19437;DHT22;9854;50.968;4.168;2023-04-25T10:19:32;11.70;99.90
19437;DHT22;9854;50.968;4.168;2023-04-25T10:22:02;11.10;99.90
19437;DHT22;9854;50.968;4.168;2023-04-25T10:24:28;10.70;99.90
19437;DHT22;9854;50.968;4.168;2023-04-25T10:26:55;10.40;99.90
19437;DHT22;9854;50.968;4.168;2023-04-25T10:29:25;10.20;99.90
19437;DHT22;9854;50.968;4.168;2023-04-25T10:31:51;10.20;99.90
19437;DHT22;9854;50.968;4.168;2023-04-25T10:34:18;10.20;99.90
19437;DHT22;9854;50.968;4.168;2023-04-25T10:36:50;10.40;99.90
19437;DHT22;9854;50.968;4.168;2023-04-25T10:39:22;10.30;99.90
19437;DHT22;9854;50.968;4.168;2023-04-25T10:41:55;10.30;99.90
19437;DHT22;9854;50.968;4.168;2023-04-25T10:44:21;10.50;99.90
19437;DHT22;9854;50.968;4.168;2023-04-25T10:46:47;10.60;99.90
19437;DHT22;9854;50.968;4.168;2023-04-25T10:49:35;10.80;99.90
19437;DHT22;9854;50.968;4.168;2023-04-25T10:55:02;10.40;99.90
19437;DHT22;9854;50.968;4.168;2023-04-25T11:00:13;10.40;99.90
19437;DHT22;9854;50.968;4.168;2023-04-25T11:02:57;10.40;99.90
19437;DHT22;9854;50.968;4.168;2023-04-25T11:05:31;10.50;99.90
19437;DHT22;9854;50.968;4.168;2023-04-25T11:07:58;10.20;99.90
19437;DHT22;9854;50.968;4.168;2023-04-25T11:10:31;10.10;99.90
19437;DHT22;9854;50.968;4.168;2023-04-25T11:12:58;10.20;99.90
19437;DHT22;9854;50.968;4.168;2023-04-25T11:15:26;10.20;99.90
19437;DHT22;9854;50.968;4.168;2023-04-25T11:17:52;10.40;99.90
19437;DHT22;9854;50.968;4.168;2023-04-25T11:20:18;10.70;99.90
19437;DHT22;9854;50.968;4.168;2023-04-25T11:22:45;10.70;99.90
19437;DHT22;9854;50.968;4.168;2023-04-25T11:25:12;10.90;99.90
19437;DHT22;9854;50.968;4.168;2023-04-25T11:27:51;11.50;99.90
19437;DHT22;9854;50.968;4.168;2023-04-25T11:30:18;11.70;99.90
19437;DHT22;9854;50.968;4.168;2023-04-25T11:32:44;11.30;99.90
19437;DHT22;9854;50.968;4.168;2023-04-25T11:35:11;10.90;99.90
19437;DHT22;9854;50.968;4.168;2023-04-25T11:37:38;10.90;99.90
19437;DHT22;9854;50.968;4.168;2023-04-25T11:40:05;10.80;99.90
19437;DHT22;9854;50.968;4.168;2023-04-25T11:42:32;10.90;99.90
19437;DHT22;9854;50.968;4.168;2023-04-25T11:44:58;11.00;99.90
19437;DHT22;9854;50.968;4.168;2023-04-25T11:47:30;11.40;99.90
19437;DHT22;9854;50.968;4.168;2023-04-25T11:50:00;12.00;99.90
19437;DHT22;9854;50.968;4.168;2023-04-25T11:55:04;12.40;99.90
19437;DHT22;9854;50.968;4.168;2023-04-25T11:57:32;12.60;99.90
19437;DHT22;9854;50.968;4.168;2023-04-25T12:00:14;12.10;99.90
19437;DHT22;9854;50.968;4.168;2023-04-25T12:02:41;12.00;99.90
19437;DHT22;9854;50.968;4.168;2023-04-25T12:05:08;12.30;99.90
19437;DHT22;9854;50.968;4.168;2023-04-25T12:07:35;12.60;99.90
19437;DHT22;9854;50.968;4.168;2023-04-25T12:10:12;12.50;99.90
19437;DHT22;9854;50.968;4.168;2023-04-25T12:12:41;12.50;99.90
19437;DHT22;9854;50.968;4.168;2023-04-25T12:15:19;12.80;99.90
19437;DHT22;9854;50.968;4.168;2023-04-25T12:17:51;13.00;99.90
19437;DHT22;9854;50.968;4.168;2023-04-25T12:20:23;13.10;99.90
19437;DHT22;9854;50.968;4.168;2023-04-25T12:22:50;13.30;99.90
19437;DHT22;9854;50.968;4.168;2023-04-25T12:28:21;13.10;99.90
19437;DHT22;9854;50.968;4.168;2023-04-25T12:31:05;12.80;99.90
19437;DHT22;9854;50.968;4.168;2023-04-25T12:33:35;12.40;99.90
19437;DHT22;9854;50.968;4.168;2023-04-25T12:36:02;12.20;99.90
19437;DHT22;9854;50.968;4.168;2023-04-25T12:38:38;12.10;99.90
19437;DHT22;9854;50.968;4.168;2023-04-25T12:41:04;12.20;99.90
19437;DHT22;9854;50.968;4.168;2023-04-25T12:43:30;12.00;99.90
19437;DHT22;9854;50.968;4.168;2023-04-25T12:45:56;12.10;99.90
19437;DHT22;9854;50.968;4.168;2023-04-25T12:48:22;12.10;99.90
19437;DHT22;9854;50.968;4.168;2023-04-25T12:50:49;11.90;99.90
19437;DHT22;9854;50.968;4.168;2023-04-25T12:53:19;11.90;99.90
19437;DHT22;9854;50.968;4.168;2023-04-25T12:55:45;12.30;99.90
19437;DHT22;9854;50.968;4.168;2023-04-25T12:58:15;12.50;99.90
19437;DHT22;9854;50.968;4.168;2023-04-25T13:00:41;13.00;99.90
19437;DHT22;9854;50.968;4.168;2023-04-25T13:03:07;13.50;99.90
19437;DHT22;9854;50.968;4.168;2023-04-25T13:05:33;13.40;99.90
19437;DHT22;9854;50.968;4.168;2023-04-25T13:07:59;13.50;99.90
19437;DHT22;9854;50.968;4.168;2023-04-25T13:10:24;14.00;99.90
19437;DHT22;9854;50.968;4.168;2023-04-25T13:12:50;14.10;99.90
19437;DHT22;9854;50.968;4.168;2023-04-25T13:15:16;14.10;99.90
19437;DHT22;9854;50.968;4.168;2023-04-25T13:17:42;13.00;99.90
19437;DHT22;9854;50.968;4.168;2023-04-25T13:20:08;12.90;99.90
19437;DHT22;9854;50.968;4.168;2023-04-25T13:22:38;12.50;99.90
19437;DHT22;9854;50.968;4.168;2023-04-25T13:25:06;12.30;99.90
19437;DHT22;9854;50.968;4.168;2023-04-25T13:27:32;12.40;99.90
19437;DHT22;9854;50.968;4.168;2023-04-25T13:30:00;12.80;99.90
19437;DHT22;9854;50.968;4.168;2023-04-25T13:32:26;12.90;99.90
19437;DHT22;9854;50.968;4.168;2023-04-25T13:34:53;13.10;99.90
19437;DHT22;9854;50.968;4.168;2023-04-25T13:37:18;12.90;99.90
19437;DHT22;9854;50.968;4.168;2023-04-25T13:39:44;12.50;99.90
19437;DHT22;9854;50.968;4.168;2023-04-25T13:42:10;12.80;99.90
19437;DHT22;9854;50.968;4.168;2023-04-25T13:44:36;12.80;99.90
19437;DHT22;9854;50.968;4.168;2023-04-25T13:47:02;12.70;99.90
19437;DHT22;9854;50.968;4.168;2023-04-25T13:49:28;12.80;99.90
19437;DHT22;9854;50.968;4.168;2023-04-25T13:51:53;13.10;99.90
19437;DHT22;9854;50.968;4.168;2023-04-25T13:54:19;13.40;99.90
19437;DHT22;9854;50.968;4.168;2023-04-25T13:56:45;13.90;99.90
19437;DHT22;9854;50.968;4.168;2023-04-25T13:59:11;14.30;99.90
19437;DHT22;9854;50.968;4.168;2023-04-25T14:01:36;14.50;99.90
19437;DHT22;9854;50.968;4.168;2023-04-25T14:04:02;14.40;99.90
19437;DHT22;9854;50.968;4.168;2023-04-25T14:06:32;14.40;99.90
19437;DHT22;9854;50.968;4.168;2023-04-25T14:08:58;14.20;99.90
19437;DHT22;9854;50.968;4.168;2023-04-25T14:11:26;14.80;99.90
19437;DHT22;9854;50.968;4.168;2023-04-25T14:13:51;15.60;99.90
19437;DHT22;9854;50.968;4.168;2023-04-25T14:16:17;15.70;99.90
19437;DHT22;9854;50.968;4.168;2023-04-25T14:18:42;15.60;99.90
19437;DHT22;9854;50.968;4.168;2023-04-25T14:21:08;15.30;99.90
19437;DHT22;9854;50.968;4.168;2023-04-25T14:23:35;15.20;99.90
19437;DHT22;9854;50.968;4.168;2023-04-25T14:26:01;14.80;99.90
19437;DHT22;9854;50.968;4.168;2023-04-25T14:28:27;14.60;99.90
19437;DHT22;9854;50.968;4.168;2023-04-25T14:30:52;14.60;99.90
19437;DHT22;9854;50.968;4.168;2023-04-25T14:33:18;14.50;99.90
19437;DHT22;9854;50.968;4.168;2023-04-25T14:35:43;14.80;99.90
19437;DHT22;9854;50.968;4.168;2023-04-25T14:38:09;14.50;99.90
19437;DHT22;9854;50.968;4.168;2023-04-25T14:40:35;14.50;99.90
19437;DHT22;9854;50.968;4.168;2023-04-25T14:43:00;14.90;99.90
19437;DHT22;9854;50.968;4.168;2023-04-25T14:45:26;14.90;99.90
19437;DHT22;9854;50.968;4.168;2023-04-25T14:47:52;15.30;99.90
19437;DHT22;9854;50.968;4.168;2023-04-25T14:50:17;15.60;99.90
19437;DHT22;9854;50.968;4.168;2023-04-25T14:52:43;15.60;99.90
19437;DHT22;9854;50.968;4.168;2023-04-25T14:55:10;15.40;99.90
19437;DHT22;9854;50.968;4.168;2023-04-25T14:57:36;14.80;99.90
19437;DHT22;9854;50.968;4.168;2023-04-25T15:00:02;14.70;99.90
19437;DHT22;9854;50.968;4.168;2023-04-25T15:02:30;15.10;99.90
19437;DHT22;9854;50.968;4.168;2023-04-25T15:04:56;15.70;99.90
19437;DHT22;9854;50.968;4.168;2023-04-25T15:07:22;17.20;99.90
19437;DHT22;9854;50.968;4.168;2023-04-25T15:09:48;17.50;99.90
19437;DHT22;9854;50.968;4.168;2023-04-25T15:12:13;18.00;99.90
19437;DHT22;9854;50.968;4.168;2023-04-25T15:14:40;18.20;99.90
19437;DHT22;9854;50.968;4.168;2023-04-25T15:17:05;18.60;99.90
19437;DHT22;9854;50.968;4.168;2023-04-25T15:19:31;18.20;99.90
19437;DHT22;9854;50.968;4.168;2023-04-25T15:21:57;19.00;99.90
19437;DHT22;9854;50.968;4.168;2023-04-25T15:24:25;17.40;99.90
19437;DHT22;9854;50.968;4.168;2023-04-25T15:26:51;16.90;99.90
19437;DHT22;9854;50.968;4.168;2023-04-25T15:29:17;16.20;99.90
19437;DHT22;9854;50.968;4.168;2023-04-25T15:31:43;15.60;99.90
19437;DHT22;9854;50.968;4.168;2023-04-25T15:34:09;14.90;99.90
19437;DHT22;9854;50.968;4.168;2023-04-25T15:36:34;14.50;99.90
19437;DHT22;9854;50.968;4.168;2023-04-25T15:39:00;14.50;99.90
19437;DHT22;9854;50.968;4.168;2023-04-25T15:41:26;15.50;99.90
19437;DHT22;9854;50.968;4.168;2023-04-25T15:43:52;16.20;99.90
19437;DHT22;9854;50.968;4.168;2023-04-25T15:46:18;15.80;99.90
19437;DHT22;9854;50.968;4.168;2023-04-25T15:48:44;16.00;99.90
19437;DHT22;9854;50.968;4.168;2023-04-25T15:51:10;15.80;99.90
19437;DHT22;9854;50.968;4.168;2023-04-25T15:53:36;15.70;99.90
19437;DHT22;9854;50.968;4.168;2023-04-25T15:56:02;15.50;99.90
19437;DHT22;9854;50.968;4.168;2023-04-25T15:58:29;16.10;99.90